createdAt,value
2019-03-01T00:03:12.840Z,6.94
2019-03-01T00:08:27.112Z,6.85
2019-03-01T00:14:31.173Z,6.87
2019-03-01T00:20:24.233Z,6.73
2019-03-01T00:26:26.264Z,6.74
2019-03-01T00:32:16.788Z,6.38
2019-03-01T00:38:26.348Z,6.31
2019-03-01T00:44:38.929Z,6.27
2019-03-01T00:49:41.919Z,6.43
2019-03-01T00:54:45.005Z,6.35
2019-03-01T00:59:47.973Z,6.23
2019-03-01T01:04:51.035Z,6.19
2019-03-01T01:15:15.147Z,6.19
2019-03-01T01:20:18.198Z,6.04
2019-03-01T01:25:21.210Z,5.93
2019-03-01T01:30:24.314Z,5.88
2019-03-01T01:35:30.222Z,5.88
2019-03-01T01:40:33.208Z,6.04
2019-03-01T01:45:36.244Z,5.90
2019-03-01T01:50:39.317Z,5.83
2019-03-01T01:55:42.555Z,5.71
2019-03-01T02:00:45.572Z,5.55
2019-03-01T02:05:48.742Z,5.38
2019-03-01T02:10:52.244Z,5.31
2019-03-01T02:15:55.318Z,5.20
2019-03-01T02:20:58.296Z,5.07
2019-03-01T02:26:01.327Z,4.94
2019-03-01T02:31:06.215Z,4.83
2019-03-01T02:36:09.301Z,4.65
2019-03-01T02:41:12.426Z,4.59
2019-03-01T02:46:15.627Z,4.49
2019-03-01T02:51:18.626Z,4.32
2019-03-01T02:56:21.914Z,4.18
2019-03-01T03:01:24.907Z,4.08
2019-03-01T03:06:42.558Z,4.04
2019-03-01T03:11:46.553Z,3.95
2019-03-01T03:16:49.604Z,3.84
2019-03-01T03:21:52.625Z,3.83
2019-03-01T03:26:55.625Z,3.60
2019-03-01T03:31:58.749Z,3.59
2019-03-01T03:37:01.779Z,3.55
2019-03-01T03:42:05.043Z,3.38
2019-03-01T03:47:08.147Z,3.25
2019-03-01T03:52:11.196Z,3.24
2019-03-01T03:57:14.399Z,3.12
2019-03-01T04:02:17.379Z,3.15
2019-03-01T04:07:20.698Z,3.05
2019-03-01T04:12:23.708Z,3.03
2019-03-01T04:17:26.765Z,2.95
2019-03-01T04:22:30.110Z,2.90
2019-03-01T04:27:33.178Z,2.84
2019-03-01T04:32:36.753Z,2.63
2019-03-01T04:37:39.913Z,2.74
2019-03-01T04:42:42.966Z,2.70
2019-03-01T04:47:46.073Z,2.67
2019-03-01T04:52:49.539Z,2.75
2019-03-01T04:57:52.497Z,2.74
2019-03-01T05:02:55.950Z,2.68
2019-03-01T05:07:59.036Z,2.52
2019-03-01T05:13:02.421Z,2.53
2019-03-01T05:18:05.511Z,2.34
2019-03-01T05:23:08.615Z,2.39
2019-03-01T05:28:11.632Z,2.47
2019-03-01T05:33:14.581Z,2.34
2019-03-01T05:38:21.753Z,2.37
2019-03-01T05:43:22.592Z,2.43
2019-03-01T05:48:25.717Z,2.40
2019-03-01T05:53:28.765Z,2.69
2019-03-01T05:58:44.919Z,2.91
2019-03-01T06:04:05.580Z,3.21
2019-03-01T06:10:00.112Z,2.86
2019-03-01T06:15:53.714Z,2.58
2019-03-01T06:21:35.555Z,2.82
2019-03-01T06:27:42.361Z,2.69
2019-03-01T06:33:32.536Z,2.56
2019-03-01T06:39:39.986Z,2.74
2019-03-01T06:45:54.922Z,2.46
2019-03-01T06:51:04.862Z,2.33
2019-03-01T06:56:08.113Z,2.54
2019-03-01T07:01:18.627Z,2.50
2019-03-01T07:06:21.605Z,2.66
2019-03-01T07:11:24.537Z,2.67
2019-03-01T07:16:27.675Z,2.71
2019-03-01T07:21:30.662Z,2.88
2019-03-01T07:26:33.677Z,3.08
2019-03-01T07:31:36.736Z,2.99
2019-03-01T07:36:39.732Z,2.92
2019-03-01T07:41:42.894Z,3.26
2019-03-01T07:46:52.613Z,3.37
2019-03-01T07:51:51.182Z,3.35
2019-03-01T07:56:54.295Z,3.46
2019-03-01T08:01:57.327Z,3.39
2019-03-01T08:07:00.384Z,3.56
2019-03-01T08:12:03.718Z,3.64
2019-03-01T08:17:08.388Z,3.85
2019-03-01T08:22:11.503Z,3.98
2019-03-01T08:27:14.701Z,3.92
2019-03-01T08:32:17.675Z,4.34
2019-03-01T08:37:20.765Z,4.51
2019-03-01T08:42:23.732Z,4.59
2019-03-01T08:47:26.691Z,4.89
2019-03-01T08:52:29.679Z,4.98
2019-03-01T08:57:32.661Z,4.92
2019-03-01T09:02:35.631Z,4.91
2019-03-01T09:07:38.686Z,5.37
2019-03-01T09:12:41.659Z,5.02
2019-03-01T09:17:44.857Z,4.80
2019-03-01T09:22:47.880Z,4.81
2019-03-01T09:27:50.892Z,5.14
2019-03-01T09:32:54.358Z,5.51
2019-03-01T09:37:57.923Z,5.46
2019-03-01T09:43:01.192Z,5.26
2019-03-01T09:48:05.190Z,5.74
2019-03-01T09:53:08.370Z,5.64
2019-03-01T09:58:11.464Z,6.49
2019-03-01T10:03:14.430Z,6.43
2019-03-01T10:08:17.952Z,6.83
2019-03-01T10:13:21.039Z,6.84
2019-03-01T10:18:24.180Z,6.68
2019-03-01T10:23:27.151Z,7.21
2019-03-01T10:28:30.165Z,6.83
2019-03-01T10:33:33.198Z,7.19
2019-03-01T10:38:36.666Z,7.15
2019-03-01T10:43:39.822Z,7.47
2019-03-01T10:48:42.864Z,7.42
2019-03-01T10:53:47.840Z,7.48
2019-03-01T10:58:50.912Z,7.43
2019-03-01T11:03:53.940Z,7.45
2019-03-01T11:08:57.089Z,7.73
2019-03-01T11:14:00.092Z,7.89
2019-03-01T11:19:03.172Z,7.87
2019-03-01T11:24:06.457Z,8.02
2019-03-01T11:29:09.473Z,8.15
2019-03-01T11:34:12.575Z,8.29
2019-03-01T11:39:16.873Z,8.45
2019-03-01T11:44:19.982Z,8.15
2019-03-01T11:49:23.114Z,8.17
2019-03-01T11:54:28.944Z,8.32
2019-03-01T11:59:32.104Z,8.80
2019-03-01T12:04:35.100Z,8.61
2019-03-01T12:09:39.450Z,8.41
2019-03-01T12:14:42.581Z,8.68
2019-03-01T12:19:45.666Z,8.51
2019-03-01T12:24:48.734Z,8.52
2019-03-01T12:29:51.763Z,8.38
2019-03-01T12:34:54.836Z,8.12
2019-03-01T12:39:57.851Z,8.35
2019-03-01T12:45:00.882Z,8.40
2019-03-01T12:50:04.849Z,8.35
2019-03-01T12:55:12.316Z,8.56
2019-03-01T13:00:27.695Z,8.13
2019-03-01T13:05:30.664Z,8.20
2019-03-01T13:10:36.896Z,8.04
2019-03-01T13:15:38.602Z,7.85
2019-03-01T13:20:41.645Z,7.92
2019-03-01T13:25:44.750Z,8.04
2019-03-01T13:30:47.777Z,8.01
2019-03-01T13:35:51.033Z,7.74
2019-03-01T13:40:54.268Z,7.68
2019-03-01T13:45:57.282Z,7.74
2019-03-01T13:51:00.369Z,7.81
2019-03-01T13:56:03.580Z,7.91
2019-03-01T14:01:07.652Z,7.76
2019-03-01T14:06:10.737Z,7.64
2019-03-01T14:11:15.142Z,7.28
2019-03-01T14:16:20.542Z,7.21
2019-03-01T14:21:23.692Z,7.08
2019-03-01T14:26:26.726Z,7.03
2019-03-01T14:31:29.695Z,7.12
2019-03-01T14:36:32.763Z,7.08
2019-03-01T14:41:35.742Z,6.81
2019-03-01T14:46:38.888Z,6.62
2019-03-01T14:51:46.530Z,6.73
2019-03-01T14:56:53.688Z,6.65
2019-03-01T15:02:20.607Z,6.52
2019-03-01T15:07:23.094Z,6.60
2019-03-01T15:12:26.202Z,6.39
2019-03-01T15:17:29.376Z,6.23
2019-03-01T15:22:32.412Z,6.26
2019-03-01T15:27:39.715Z,6.18
2019-03-01T15:32:40.732Z,6.27
2019-03-01T15:37:43.891Z,6.07
2019-03-01T15:42:47.034Z,6.02
2019-03-01T15:47:50.533Z,5.99
2019-03-01T15:52:56.088Z,5.95
2019-03-01T15:57:59.542Z,5.93
2019-03-01T16:03:03.345Z,5.88
2019-03-01T16:08:08.448Z,5.88
2019-03-01T16:13:12.215Z,5.84
2019-03-01T16:18:16.245Z,5.72
2019-03-01T16:23:19.161Z,5.69
2019-03-01T16:28:22.389Z,5.59
2019-03-01T16:33:26.303Z,5.58
2019-03-01T16:38:30.539Z,5.57
2019-03-01T16:43:33.723Z,5.49
2019-03-01T16:48:36.734Z,5.53
2019-03-01T16:53:40.608Z,5.61
2019-03-01T16:58:44.735Z,5.57
2019-03-01T17:03:49.612Z,5.63
2019-03-01T17:08:53.280Z,5.62
2019-03-01T17:13:59.589Z,5.60
2019-03-01T17:19:01.345Z,5.72
2019-03-01T17:24:04.437Z,5.63
2019-03-01T17:29:07.495Z,5.66
2019-03-01T17:34:10.575Z,5.57
2019-03-01T17:39:16.731Z,5.53
2019-03-01T17:44:21.358Z,5.72
2019-03-01T17:49:24.378Z,5.73
2019-03-01T17:54:27.567Z,5.77
2019-03-01T17:59:30.720Z,5.71
2019-03-01T18:04:36.721Z,5.59
2019-03-01T18:09:38.676Z,5.52
2019-03-01T18:14:41.811Z,5.44
2019-03-01T18:19:44.757Z,5.29
2019-03-01T18:24:49.911Z,5.12
2019-03-01T18:29:52.719Z,4.90
2019-03-01T18:34:55.769Z,4.79
2019-03-01T18:39:58.744Z,4.60
2019-03-01T18:45:03.547Z,4.55
2019-03-01T18:50:12.033Z,4.58
2019-03-01T18:55:17.445Z,4.36
2019-03-01T19:00:32.581Z,4.21
2019-03-01T19:05:36.605Z,4.37
2019-03-01T19:10:39.525Z,4.23
2019-03-01T19:15:42.662Z,4.36
2019-03-01T19:20:46.948Z,4.29
2019-03-01T19:25:50.035Z,4.09
2019-03-01T19:30:53.116Z,3.88
2019-03-01T19:35:56.118Z,3.51
2019-03-01T19:40:59.184Z,3.30
2019-03-01T19:46:02.188Z,3.36
2019-03-01T19:51:05.255Z,3.31
2019-03-01T19:56:08.244Z,3.10
2019-03-01T20:01:11.462Z,2.74
2019-03-01T20:06:14.805Z,2.78
2019-03-01T20:11:17.826Z,2.74
2019-03-01T20:16:22.740Z,2.58
2019-03-01T20:21:25.722Z,2.69
2019-03-01T20:26:28.822Z,2.59
2019-03-01T20:31:31.918Z,2.76
2019-03-01T20:36:34.992Z,2.57
2019-03-01T20:41:40.077Z,2.73
2019-03-01T20:46:43.959Z,2.76
2019-03-01T20:51:48.009Z,2.62
2019-03-01T20:56:51.636Z,2.33
2019-03-01T21:01:55.677Z,2.22
2019-03-01T21:06:58.755Z,2.21
2019-03-01T21:12:01.921Z,2.10
2019-03-01T21:17:04.965Z,2.04
2019-03-01T21:22:08.003Z,2.09
2019-03-01T21:27:10.960Z,2.05
2019-03-01T21:32:14.643Z,1.98
2019-03-01T21:37:17.975Z,1.82
2019-03-01T21:42:21.268Z,1.69
2019-03-01T21:47:24.466Z,1.51
2019-03-01T21:52:29.593Z,1.50
2019-03-01T21:57:32.436Z,1.59
2019-03-01T22:02:35.484Z,1.69
2019-03-01T22:07:38.649Z,1.42
2019-03-01T22:12:41.733Z,1.43
2019-03-01T22:17:45.379Z,1.43
2019-03-01T22:22:49.789Z,1.39
2019-03-01T22:27:52.799Z,1.27
2019-03-01T22:32:55.989Z,1.57
2019-03-01T22:38:00.918Z,1.25
2019-03-01T22:43:04.317Z,1.05
2019-03-01T22:48:08.527Z,1.30
2019-03-01T22:53:12.719Z,1.42
2019-03-01T22:58:16.574Z,0.92
2019-03-01T23:03:20.209Z,0.61
2019-03-01T23:08:23.369Z,0.73
2019-03-01T23:13:26.488Z,0.81
2019-03-01T23:18:29.530Z,0.74
2019-03-01T23:23:32.650Z,0.77
2019-03-01T23:28:35.617Z,0.46
2019-03-01T23:33:38.689Z,0.56
2019-03-01T23:38:41.740Z,0.37
2019-03-01T23:43:44.807Z,-0.44
2019-03-01T23:48:48.877Z,-0.28
2019-03-01T23:53:52.667Z,-0.25
2019-03-01T23:58:55.638Z,-0.71
